Jaipur, India
Current Conditions -  °F | °C
As of 8:30 PM on Friday 24 Oct 2014 (Local Time) from VIJP Reporting Station
Smoke Smoke  
Wind Chill: 79°   Ceiling: 9000
Heat Index: 79°   Visibility: 1mi
Dew Point: 55°   Wind: 5mph
Humidity: 44%   Direction: 100°E
Pressure: 29.94"   Gusts: NA
Location:  26.91°N, 75.8°E
Report Text: VIJP 241530Z 10004KT 1600 R27/P2000N FU SCT030 BKN090 26/13 Q1014 NOSIG
Loading
Personal Weather Stations






























Interactive Weather Map New forecast layout! Learn more

10-Day Weather Forecast

Advertisements
Track Severe Weather on mobile